createdAt,value
2022-12-08T00:01:34.178Z,4.32
2022-12-08T00:04:04.849Z,4.36
2022-12-08T00:06:52.483Z,4.40
2022-12-08T00:09:25.002Z,4.38
2022-12-08T00:11:55.389Z,4.41
2022-12-08T00:14:34.465Z,4.38
2022-12-08T00:17:03.307Z,4.41
2022-12-08T00:19:33.372Z,4.42
2022-12-08T00:22:01.580Z,4.39
2022-12-08T00:24:33.008Z,4.44
2022-12-08T00:27:00.654Z,4.50
2022-12-08T00:29:28.719Z,4.56
2022-12-08T00:31:56.459Z,4.57
2022-12-08T00:34:24.152Z,4.52
2022-12-08T00:36:53.176Z,4.50
2022-12-08T00:39:20.944Z,4.44
2022-12-08T00:42:06.452Z,4.48
2022-12-08T00:44:34.103Z,4.47
2022-12-08T00:47:01.837Z,4.41
2022-12-08T00:49:29.504Z,4.40
2022-12-08T00:51:58.528Z,4.42
2022-12-08T00:54:26.348Z,4.40
2022-12-08T00:56:56.366Z,4.38
2022-12-08T00:59:24.070Z,4.36
2022-12-08T01:01:51.702Z,4.39
2022-12-08T01:04:20.542Z,4.39
2022-12-08T01:06:50.154Z,4.37
2022-12-08T01:09:19.939Z,4.34
2022-12-08T01:11:49.050Z,4.31
2022-12-08T01:14:17.094Z,4.27
2022-12-08T01:16:45.283Z,4.29
2022-12-08T01:19:15.019Z,4.28
2022-12-08T01:21:43.746Z,4.24
2022-12-08T01:24:12.935Z,4.21
2022-12-08T01:26:42.421Z,4.22
2022-12-08T01:29:11.431Z,4.20
2022-12-08T01:31:39.870Z,4.17
2022-12-08T01:34:08.613Z,4.11
2022-12-08T01:36:38.196Z,4.07
2022-12-08T01:39:08.307Z,4.10
2022-12-08T01:41:37.959Z,4.17
2022-12-08T01:44:39.143Z,4.24
2022-12-08T01:47:08.187Z,4.23
2022-12-08T01:49:38.341Z,4.21
2022-12-08T01:52:12.672Z,4.07
2022-12-08T01:54:45.241Z,4.08
2022-12-08T01:57:17.803Z,4.12
2022-12-08T01:59:50.310Z,4.15
2022-12-08T02:02:19.335Z,4.09
2022-12-08T02:04:47.085Z,4.11
2022-12-08T02:07:17.236Z,4.13
2022-12-08T02:09:46.099Z,4.15
2022-12-08T02:12:14.179Z,4.12
2022-12-08T02:14:41.920Z,4.03
2022-12-08T02:17:22.451Z,3.97
2022-12-08T02:20:15.610Z,3.97
2022-12-08T02:22:52.832Z,4.05
2022-12-08T02:25:31.172Z,4.08
2022-12-08T02:28:12.162Z,3.96
2022-12-08T02:30:51.912Z,3.91
2022-12-08T02:33:48.830Z,3.93
2022-12-08T02:36:24.436Z,3.98
2022-12-08T02:39:02.373Z,3.94
2022-12-08T02:41:39.107Z,3.95
2022-12-08T02:44:13.329Z,3.94
2022-12-08T02:46:45.873Z,3.94
2022-12-08T02:49:16.612Z,3.97
2022-12-08T02:51:44.283Z,3.93
2022-12-08T02:54:12.615Z,3.96
2022-12-08T02:56:54.284Z,4.02
2022-12-08T02:59:33.190Z,4.01
2022-12-08T03:02:15.473Z,3.97
2022-12-08T03:04:47.518Z,3.96
2022-12-08T03:07:22.436Z,3.90
2022-12-08T03:09:55.192Z,3.98
2022-12-08T03:12:29.455Z,3.98
2022-12-08T03:15:01.292Z,4.05
2022-12-08T03:17:32.031Z,4.04
2022-12-08T03:20:05.331Z,3.92
2022-12-08T03:22:34.011Z,3.97
2022-12-08T03:25:02.341Z,4.00
2022-12-08T03:27:32.004Z,4.01
2022-12-08T03:30:02.016Z,3.97
2022-12-08T03:32:34.328Z,4.00
2022-12-08T03:35:07.427Z,4.03
2022-12-08T03:37:36.735Z,4.06
2022-12-08T03:40:04.805Z,4.06
2022-12-08T03:42:32.609Z,4.03
2022-12-08T03:45:00.244Z,4.09
2022-12-08T03:47:27.960Z,4.08
2022-12-08T03:49:55.555Z,4.01
2022-12-08T03:52:24.555Z,3.97
2022-12-08T03:54:52.242Z,3.97
2022-12-08T03:57:19.952Z,3.92
2022-12-08T03:59:47.605Z,3.92
2022-12-08T04:02:15.372Z,3.95
2022-12-08T04:04:43.027Z,3.91
2022-12-08T04:07:10.649Z,3.88
2022-12-08T04:09:41.536Z,3.92
2022-12-08T04:12:09.199Z,3.92
2022-12-08T04:14:36.992Z,3.99
2022-12-08T04:17:04.747Z,3.97
2022-12-08T04:19:32.395Z,3.90
2022-12-08T04:22:00.040Z,3.90
2022-12-08T04:24:27.855Z,3.86
2022-12-08T04:26:56.835Z,3.91
2022-12-08T04:29:24.456Z,3.94
2022-12-08T04:31:52.212Z,3.88
2022-12-08T04:34:19.885Z,3.90
2022-12-08T04:36:47.492Z,3.90
2022-12-08T04:39:15.112Z,3.90
2022-12-08T04:41:42.748Z,3.95
2022-12-08T04:44:11.747Z,3.99
2022-12-08T04:46:43.406Z,3.90
2022-12-08T04:49:11.616Z,3.90
2022-12-08T04:51:39.247Z,3.90
2022-12-08T04:54:06.962Z,3.88
2022-12-08T04:56:34.646Z,3.84
2022-12-08T04:59:02.378Z,3.87
2022-12-08T05:01:31.517Z,3.85
2022-12-08T05:03:59.199Z,3.83
2022-12-08T05:06:26.834Z,3.86
2022-12-08T05:08:54.466Z,3.90
2022-12-08T05:11:22.230Z,3.91
2022-12-08T05:13:49.907Z,3.93
2022-12-08T05:16:17.903Z,3.91
2022-12-08T05:18:46.970Z,3.84
2022-12-08T05:21:14.735Z,3.76
2022-12-08T05:23:42.386Z,3.77
2022-12-08T05:26:10.044Z,3.81
2022-12-08T05:28:42.772Z,3.82
2022-12-08T05:31:11.259Z,3.87
2022-12-08T05:33:39.576Z,3.88
2022-12-08T05:36:09.472Z,3.83
2022-12-08T05:38:37.221Z,3.82
2022-12-08T05:41:06.440Z,3.85
2022-12-08T05:43:34.433Z,3.74
2022-12-08T05:46:02.245Z,3.77
2022-12-08T05:48:29.960Z,3.77
2022-12-08T05:50:57.741Z,3.77
2022-12-08T05:53:26.819Z,3.72
2022-12-08T05:55:54.695Z,3.77
2022-12-08T05:58:24.512Z,3.79
2022-12-08T06:00:52.487Z,3.78
2022-12-08T06:03:20.502Z,3.73
2022-12-08T06:05:48.655Z,3.67
2022-12-08T06:08:16.574Z,3.72
2022-12-08T06:10:46.721Z,3.70
2022-12-08T06:13:14.828Z,3.73
2022-12-08T06:15:43.159Z,3.80
2022-12-08T06:18:13.967Z,3.72
2022-12-08T06:20:41.626Z,3.73
2022-12-08T06:23:09.536Z,3.74
2022-12-08T06:25:37.147Z,3.75
2022-12-08T06:28:07.180Z,3.75
2022-12-08T06:30:35.338Z,3.72
2022-12-08T06:33:02.980Z,3.75
2022-12-08T06:35:30.608Z,3.72
2022-12-08T06:37:58.240Z,3.76
2022-12-08T06:40:25.912Z,3.77
2022-12-08T06:42:53.547Z,3.76
2022-12-08T06:45:22.538Z,3.77
2022-12-08T06:47:50.241Z,3.79
2022-12-08T06:50:17.970Z,3.82
2022-12-08T06:52:58.223Z,3.86
2022-12-08T06:58:19.525Z,3.92
2022-12-08T07:00:48.530Z,3.92
2022-12-08T07:03:16.351Z,3.84
2022-12-08T07:05:46.423Z,3.87
2022-12-08T07:08:14.155Z,3.90
2022-12-08T07:10:41.849Z,3.83
2022-12-08T07:13:09.609Z,3.82
2022-12-08T07:15:37.309Z,3.77
2022-12-08T07:18:06.326Z,3.82
2022-12-08T07:20:33.968Z,3.79
2022-12-08T07:23:01.668Z,3.71
2022-12-08T07:25:29.343Z,3.66
2022-12-08T07:27:57.045Z,3.63
2022-12-08T07:30:24.807Z,3.57
2022-12-08T07:32:52.586Z,3.52
2022-12-08T07:35:23.019Z,3.62
2022-12-08T07:37:50.904Z,3.68
2022-12-08T07:40:18.689Z,3.66
2022-12-08T07:42:46.296Z,3.60
2022-12-08T07:45:14.061Z,3.54
2022-12-08T07:47:41.724Z,3.60
2022-12-08T07:50:09.747Z,3.65
2022-12-08T07:52:38.686Z,3.75
2022-12-08T07:55:07.338Z,3.80
2022-12-08T07:57:34.963Z,3.74
2022-12-08T08:00:03.386Z,3.74
2022-12-08T08:02:31.343Z,3.82
2022-12-08T08:04:59.247Z,3.82
2022-12-08T08:07:26.968Z,3.87
2022-12-08T08:09:55.961Z,3.85
2022-12-08T08:12:31.197Z,3.75
2022-12-08T08:15:00.058Z,3.79
2022-12-08T08:17:28.054Z,3.80
2022-12-08T08:19:55.812Z,3.87
2022-12-08T08:22:23.516Z,3.87
2022-12-08T08:24:51.152Z,3.90
2022-12-08T08:27:20.661Z,3.88
2022-12-08T08:29:48.359Z,3.93
2022-12-08T08:32:16.104Z,3.93
2022-12-08T08:34:44.322Z,3.97
2022-12-08T08:37:12.032Z,3.96
2022-12-08T08:39:39.698Z,4.01
2022-12-08T08:42:07.482Z,4.01
2022-12-08T08:44:37.340Z,4.02
2022-12-08T08:47:05.058Z,4.04
2022-12-08T08:49:32.684Z,4.12
2022-12-08T08:52:00.397Z,4.11
2022-12-08T08:54:29.753Z,4.13
2022-12-08T08:56:58.380Z,4.03
2022-12-08T08:59:26.531Z,3.89
2022-12-08T09:01:55.960Z,3.93
2022-12-08T09:04:25.526Z,4.03
2022-12-08T09:06:53.441Z,4.00
2022-12-08T09:09:21.264Z,4.00
2022-12-08T09:11:48.888Z,3.91
2022-12-08T09:14:16.574Z,3.87
2022-12-08T09:16:44.438Z,3.88
2022-12-08T09:19:13.560Z,3.99
2022-12-08T09:21:41.248Z,4.06
2022-12-08T09:24:15.328Z,4.01
2022-12-08T09:26:44.324Z,3.96
2022-12-08T09:29:13.710Z,4.10
2022-12-08T09:31:42.164Z,4.15
2022-12-08T09:34:13.247Z,4.15
2022-12-08T09:36:41.123Z,4.16
2022-12-08T09:39:08.906Z,4.22
2022-12-08T09:41:44.861Z,4.20
2022-12-08T09:44:38.498Z,4.09
2022-12-08T09:47:14.333Z,4.16
2022-12-08T09:49:48.004Z,4.16
2022-12-08T09:52:24.684Z,4.21
2022-12-08T09:54:52.515Z,4.27
2022-12-08T09:57:24.457Z,4.28
2022-12-08T09:59:56.916Z,4.30
2022-12-08T10:02:27.113Z,4.33
2022-12-08T10:04:58.425Z,4.40
2022-12-08T10:07:34.635Z,4.51
2022-12-08T10:10:13.900Z,4.39
2022-12-08T10:12:47.706Z,4.34
2022-12-08T10:15:33.356Z,4.36
2022-12-08T10:18:04.359Z,4.34
2022-12-08T10:20:38.536Z,4.32
2022-12-08T10:23:14.596Z,4.40
2022-12-08T10:25:45.710Z,4.42
2022-12-08T10:28:14.201Z,4.40
2022-12-08T10:30:42.861Z,4.33
2022-12-08T10:33:16.542Z,4.52
2022-12-08T10:35:48.150Z,4.62
2022-12-08T10:38:22.891Z,4.73
2022-12-08T10:40:53.143Z,4.78
2022-12-08T10:43:25.707Z,4.78
2022-12-08T10:45:55.901Z,4.87
2022-12-08T10:48:27.308Z,4.85
2022-12-08T10:50:58.089Z,4.83
2022-12-08T10:53:27.294Z,4.78
2022-12-08T10:56:08.441Z,4.78
2022-12-08T10:58:40.442Z,4.75
2022-12-08T11:01:13.378Z,4.74
2022-12-08T11:03:47.568Z,4.73
2022-12-08T11:06:19.741Z,4.78
2022-12-08T11:08:53.394Z,4.66
2022-12-08T11:11:29.041Z,4.64
2022-12-08T11:13:57.485Z,4.67
2022-12-08T11:16:25.367Z,4.69
2022-12-08T11:18:57.832Z,4.69
2022-12-08T11:21:35.259Z,4.71
2022-12-08T11:24:21.941Z,4.76
2022-12-08T11:26:53.713Z,4.66
2022-12-08T11:29:22.181Z,4.66
2022-12-08T11:31:54.317Z,4.57
2022-12-08T11:34:28.286Z,4.52
2022-12-08T11:36:58.481Z,4.48
2022-12-08T11:39:29.430Z,4.47
2022-12-08T11:41:57.680Z,4.56
2022-12-08T11:44:34.074Z,4.61
2022-12-08T11:47:06.213Z,4.51
2022-12-08T11:49:37.115Z,4.57
2022-12-08T11:52:13.213Z,4.57
2022-12-08T11:54:46.077Z,4.57
2022-12-08T11:57:16.391Z,4.59
2022-12-08T11:59:46.952Z,4.59
2022-12-08T12:02:17.731Z,4.67
2022-12-08T12:04:52.022Z,4.64
2022-12-08T12:07:38.122Z,4.69
2022-12-08T12:10:25.867Z,4.75
2022-12-08T12:13:05.957Z,4.78
2022-12-08T12:16:03.627Z,4.59
2022-12-08T12:18:39.068Z,4.57
2022-12-08T12:21:12.184Z,4.57
2022-12-08T12:23:45.717Z,4.55
2022-12-08T12:26:20.891Z,4.52
2022-12-08T12:28:54.800Z,4.51
2022-12-08T12:31:25.980Z,4.55
2022-12-08T12:33:57.918Z,4.57
2022-12-08T12:36:26.364Z,4.65
2022-12-08T12:39:04.002Z,4.58
2022-12-08T12:41:38.446Z,4.58
2022-12-08T12:44:24.327Z,4.45
2022-12-08T12:46:59.706Z,4.37
2022-12-08T12:49:50.492Z,4.30
2022-12-08T12:52:46.941Z,4.29
2022-12-08T12:55:50.927Z,4.34
2022-12-08T12:58:40.767Z,4.45
2022-12-08T13:01:37.513Z,4.44
2022-12-08T13:04:08.644Z,4.52
2022-12-08T13:06:40.593Z,4.62
2022-12-08T13:09:19.637Z,4.65
2022-12-08T13:11:52.602Z,4.60
2022-12-08T13:14:33.024Z,4.62
2022-12-08T13:17:03.265Z,4.65
2022-12-08T13:19:33.946Z,4.70
2022-12-08T13:22:02.286Z,4.65
2022-12-08T13:24:35.556Z,4.58
2022-12-08T13:27:36.036Z,4.62
2022-12-08T13:30:40.956Z,4.60
2022-12-08T13:33:18.248Z,4.50
2022-12-08T13:35:56.142Z,4.50
2022-12-08T13:38:29.908Z,4.62
2022-12-08T13:40:58.546Z,4.54
2022-12-08T13:43:48.381Z,4.49
2022-12-08T13:51:23.782Z,4.47
2022-12-08T13:58:04.443Z,4.55
2022-12-08T14:00:33.593Z,4.59
2022-12-08T14:03:02.767Z,4.65
2022-12-08T14:06:10.554Z,4.67
2022-12-08T14:08:58.343Z,4.64
2022-12-08T14:11:34.432Z,4.61
2022-12-08T14:14:04.180Z,4.55
2022-12-08T14:16:39.424Z,4.47
2022-12-08T14:19:16.079Z,4.48
2022-12-08T14:21:47.817Z,4.41
2022-12-08T14:24:15.510Z,4.41
2022-12-08T14:26:46.973Z,4.41
2022-12-08T14:29:31.012Z,4.42
2022-12-08T14:32:00.382Z,4.40
2022-12-08T14:34:28.128Z,4.28
2022-12-08T14:36:55.896Z,4.31
2022-12-08T14:39:24.092Z,4.41
2022-12-08T14:42:00.127Z,4.45
2022-12-08T14:44:32.260Z,4.48
2022-12-08T14:47:09.745Z,4.44
2022-12-08T14:49:39.510Z,4.55
2022-12-08T14:52:11.291Z,4.70
2022-12-08T14:54:40.921Z,4.75
2022-12-08T14:57:12.687Z,4.70
2022-12-08T14:59:43.261Z,4.72
2022-12-08T15:02:25.175Z,4.66
2022-12-08T15:04:59.396Z,4.66
2022-12-08T15:07:29.874Z,4.59
2022-12-08T15:10:21.163Z,4.60
2022-12-08T15:13:05.647Z,4.60
2022-12-08T15:15:47.881Z,4.53
2022-12-08T15:18:18.931Z,4.48
2022-12-08T15:20:49.849Z,4.48
2022-12-08T15:23:22.777Z,4.38
2022-12-08T15:25:50.928Z,4.36
2022-12-08T15:28:24.024Z,4.42
2022-12-08T15:30:56.159Z,4.36
2022-12-08T15:33:25.155Z,4.36
2022-12-08T15:35:53.676Z,4.38
2022-12-08T15:38:24.629Z,4.27
2022-12-08T15:40:52.725Z,4.32
2022-12-08T15:43:20.847Z,4.36
2022-12-08T15:45:58.388Z,4.39
2022-12-08T15:48:29.412Z,4.49
2022-12-08T15:50:57.680Z,4.54
2022-12-08T15:53:25.361Z,4.52
2022-12-08T15:56:25.681Z,4.55
2022-12-08T15:58:57.383Z,4.58
2022-12-08T16:01:25.726Z,4.41
2022-12-08T16:07:19.712Z,4.36
2022-12-08T16:09:37.065Z,4.43
2022-12-08T16:12:23.166Z,4.49
2022-12-08T16:17:40.056Z,4.38
2022-12-08T16:20:14.819Z,4.40
2022-12-08T16:23:08.059Z,4.40
2022-12-08T16:25:46.028Z,4.43
2022-12-08T16:28:52.331Z,4.38
2022-12-08T16:31:11.751Z,4.37
2022-12-08T16:33:41.583Z,4.31
2022-12-08T16:36:11.950Z,4.28
2022-12-08T16:38:39.648Z,4.31
2022-12-08T16:41:25.111Z,4.24
2022-12-08T16:43:53.049Z,4.25
2022-12-08T16:46:23.711Z,4.26
2022-12-08T16:48:51.453Z,4.36
2022-12-08T16:51:26.606Z,4.55
2022-12-08T16:53:55.643Z,4.66
2022-12-08T16:56:28.986Z,4.60
2022-12-08T16:59:00.101Z,4.66
2022-12-08T17:01:27.883Z,4.69
2022-12-08T17:04:29.313Z,4.63
2022-12-08T17:06:44.628Z,4.56
2022-12-08T17:09:12.324Z,4.52
2022-12-08T17:11:43.341Z,4.47
2022-12-08T17:14:12.220Z,4.45
2022-12-08T17:16:41.443Z,4.41
2022-12-08T17:19:09.198Z,4.36
2022-12-08T17:21:37.037Z,4.36
2022-12-08T17:24:06.639Z,4.23
2022-12-08T17:26:37.264Z,4.26
2022-12-08T17:29:05.571Z,4.28
2022-12-08T17:31:33.574Z,4.28
2022-12-08T17:34:02.453Z,4.30
2022-12-08T17:36:30.229Z,4.27
2022-12-08T17:38:59.827Z,4.26
2022-12-08T17:41:29.075Z,4.29
2022-12-08T17:43:57.193Z,4.18
2022-12-08T17:46:25.244Z,4.18
2022-12-08T17:48:53.157Z,4.17
2022-12-08T17:51:20.835Z,4.16
2022-12-08T17:53:48.544Z,4.22
2022-12-08T17:56:19.389Z,4.21
2022-12-08T17:58:54.045Z,4.20
2022-12-08T18:01:23.202Z,4.19
2022-12-08T18:03:51.104Z,4.15
2022-12-08T18:06:18.884Z,4.13
2022-12-08T18:08:46.668Z,4.03
2022-12-08T18:11:17.181Z,4.03
2022-12-08T18:13:45.153Z,4.02
2022-12-08T18:16:15.440Z,4.03
2022-12-08T18:18:43.503Z,4.00
2022-12-08T18:21:11.836Z,3.92
2022-12-08T18:23:40.466Z,3.82
2022-12-08T18:26:10.169Z,3.82
2022-12-08T18:28:38.678Z,3.81
2022-12-08T18:31:09.666Z,3.87
2022-12-08T18:33:40.834Z,3.89
2022-12-08T18:36:10.297Z,3.95
2022-12-08T18:38:38.659Z,3.94
2022-12-08T18:41:07.978Z,3.87
2022-12-08T18:43:36.346Z,3.87
2022-12-08T18:46:05.171Z,3.76
2022-12-08T18:48:32.998Z,3.79
2022-12-08T18:51:01.979Z,3.72
2022-12-08T18:53:30.052Z,3.65
2022-12-08T18:55:57.779Z,3.74
2022-12-08T18:58:25.492Z,3.73
2022-12-08T19:00:53.276Z,3.79
2022-12-08T19:03:21.021Z,3.79
2022-12-08T19:05:48.756Z,3.79
2022-12-08T19:08:18.033Z,3.76
2022-12-08T19:10:45.931Z,3.83
2022-12-08T19:13:13.736Z,3.84
2022-12-08T19:15:41.509Z,3.87
2022-12-08T19:18:09.268Z,3.87
2022-12-08T19:20:36.919Z,3.89
2022-12-08T19:23:04.691Z,3.91
2022-12-08T19:25:33.885Z,3.90
2022-12-08T19:28:01.593Z,3.88
2022-12-08T19:30:29.429Z,3.76
2022-12-08T19:32:57.546Z,3.75
2022-12-08T19:35:25.385Z,3.77
2022-12-08T19:37:54.665Z,3.78
2022-12-08T19:40:39.920Z,3.76
2022-12-08T19:43:48.912Z,3.67
2022-12-08T19:46:17.046Z,3.72
2022-12-08T19:48:45.607Z,3.73
2022-12-08T19:51:13.462Z,3.76
2022-12-08T19:53:47.151Z,3.78
2022-12-08T19:56:15.424Z,3.80
2022-12-08T19:58:44.432Z,3.80
2022-12-08T20:01:12.231Z,3.81
2022-12-08T20:03:40.191Z,3.83
2022-12-08T20:06:07.946Z,3.82
2022-12-08T20:08:35.688Z,3.81
2022-12-08T20:11:03.464Z,3.82
2022-12-08T20:13:45.497Z,3.68
2022-12-08T20:16:16.135Z,3.65
2022-12-08T20:18:44.234Z,3.69
2022-12-08T20:21:13.285Z,3.69
2022-12-08T20:23:40.923Z,3.69
2022-12-08T20:26:12.295Z,3.68
2022-12-08T20:28:40.137Z,3.65
2022-12-08T20:31:07.980Z,3.62
2022-12-08T20:33:37.027Z,3.57
2022-12-08T20:36:07.363Z,3.53
2022-12-08T20:38:35.012Z,3.50
2022-12-08T20:41:02.681Z,3.48
2022-12-08T20:43:30.331Z,3.40
2022-12-08T20:45:57.991Z,3.41
2022-12-08T20:48:25.918Z,3.40
2022-12-08T20:50:55.071Z,3.40
2022-12-08T20:53:23.081Z,3.42
2022-12-08T20:55:50.892Z,3.41
2022-12-08T20:58:18.612Z,3.40
2022-12-08T21:00:46.332Z,3.42
2022-12-08T21:03:15.356Z,3.46
2022-12-08T21:05:49.302Z,3.39
2022-12-08T21:08:19.221Z,3.38
2022-12-08T21:10:47.537Z,3.36
2022-12-08T21:13:15.380Z,3.36
2022-12-08T21:15:46.528Z,3.32
2022-12-08T21:18:14.780Z,3.29
2022-12-08T21:20:43.078Z,3.26
2022-12-08T21:23:11.418Z,3.22
2022-12-08T21:25:42.696Z,3.19
2022-12-08T21:28:10.568Z,3.23
2022-12-08T21:30:39.123Z,3.21
2022-12-08T21:33:07.268Z,3.15
2022-12-08T21:35:35.144Z,3.12
2022-12-08T21:38:02.874Z,3.11
2022-12-08T21:40:30.584Z,3.12
2022-12-08T21:42:59.659Z,3.02
2022-12-08T21:45:27.721Z,2.98
2022-12-08T21:47:57.827Z,3.00
2022-12-08T21:50:26.015Z,2.95
2022-12-08T21:52:53.787Z,2.94
2022-12-08T21:55:23.523Z,3.01
2022-12-08T21:57:51.492Z,2.97
2022-12-08T22:00:22.338Z,2.98
2022-12-08T22:02:50.261Z,2.88
2022-12-08T22:05:18.343Z,2.81
2022-12-08T22:07:46.213Z,2.64
2022-12-08T22:10:14.096Z,2.70
2022-12-08T22:12:42.116Z,2.72
2022-12-08T22:15:11.921Z,2.70
2022-12-08T22:17:42.916Z,2.71
2022-12-08T22:20:13.381Z,2.73
2022-12-08T22:22:41.927Z,2.75
2022-12-08T22:25:12.624Z,2.69
2022-12-08T22:27:41.546Z,2.68
2022-12-08T22:30:11.559Z,2.69
2022-12-08T22:32:42.097Z,2.72
2022-12-08T22:35:11.611Z,2.71
2022-12-08T22:37:39.559Z,2.61
2022-12-08T22:40:09.283Z,2.63
2022-12-08T22:42:37.520Z,2.66
2022-12-08T22:45:06.164Z,2.66
2022-12-08T22:47:34.449Z,2.64
2022-12-08T22:50:04.889Z,2.49
2022-12-08T22:52:33.134Z,2.50
2022-12-08T22:55:01.057Z,2.54
2022-12-08T22:57:29.159Z,2.56
2022-12-08T22:59:56.808Z,2.58
2022-12-08T23:02:24.475Z,2.57
2022-12-08T23:04:56.755Z,2.52
2022-12-08T23:07:26.103Z,2.49
2022-12-08T23:09:54.100Z,2.42
2022-12-08T23:12:21.888Z,2.46
2022-12-08T23:14:49.535Z,2.42
2022-12-08T23:17:17.310Z,2.44
2022-12-08T23:19:45.265Z,2.42
2022-12-08T23:22:13.045Z,2.44
2022-12-08T23:24:42.304Z,2.43
2022-12-08T23:27:10.214Z,2.36
2022-12-08T23:29:38.376Z,2.36
2022-12-08T23:32:06.636Z,2.40
2022-12-08T23:34:34.603Z,2.38
2022-12-08T23:37:02.236Z,2.39
2022-12-08T23:39:30.116Z,2.40
2022-12-08T23:41:59.219Z,2.41
2022-12-08T23:44:27.551Z,2.39
2022-12-08T23:46:55.342Z,2.40
2022-12-08T23:49:23.471Z,2.39
2022-12-08T23:51:51.966Z,2.39
2022-12-08T23:54:19.667Z,2.46
2022-12-08T23:56:47.342Z,2.50
2022-12-08T23:59:16.463Z,2.53
